Franconia, New Hampshire
Current Conditions -  °F | °C
As of 4:52 PM on Wednesday 28 Jan 2015 (Local Time) from KHIE Reporting Station
Clear Clear  
Wind Chill:   Ceiling: Unl
Heat Index: 13°   Visibility: 10mi
Dew Point:   Wind: 6mph
Humidity: 59%   Direction: 360°N
Pressure: 30.09"   Gusts: NA
Location:  44.23°N, 71.75°W
Report Text: KHIE 282152Z AUTO 36005KT 10SM CLR M11/M17 A3009 RMK AO2 SLP214 T11061172
Loading
Personal Weather Stations






























Interactive Weather Map New forecast layout! Learn more

10-Day Weather Forecast

Advertisements
Track Severe Weather on mobile